Time;durP1;ratioP1;P1;durP2;ratioP2;P2;SDS_P1;SDS_P2;PMS_P1;PMS_P2;Temp;Humidity;BMP_temperature;BMP_pressure;BME280_temperature;BME280_humidity;BME280_pressure;Samples;Min_cycle;Max_cycle;Signal;HPM_P1;HPM_P2
2021/03/08 00:00:27;;;;;;;9.98;4.45;;;;;;;12.43;69.20;101584.84;4991430;28;20045;-68
2021/03/08 00:02:55;;;;;;;10.52;5.07;;;;;;;12.37;69.12;101590.91;5009840;28;20064;-68
2021/03/08 00:05:23;;;;;;;11.38;5.00;;;;;;;12.29;69.19;101587.19;5009190;28;20101;-68
2021/03/08 00:07:51;;;;;;;13.30;5.85;;;;;;;12.30;69.19;101578.38;5009341;28;20113;-68
2021/03/08 00:10:19;;;;;;;10.93;5.55;;;;;;;12.32;69.03;101583.72;5009376;28;20137;-68
2021/03/08 00:12:50;;;;;;;14.75;5.20;;;;;;;12.32;69.14;101575.78;5009867;28;20046;-68
2021/03/08 00:15:18;;;;;;;14.32;5.07;;;;;;;12.27;69.30;101574.81;5008528;28;20042;-68
2021/03/08 00:17:46;;;;;;;12.02;5.38;;;;;;;12.23;69.41;101573.81;5012840;28;20085;-68
2021/03/08 00:20:16;;;;;;;9.80;4.95;;;;;;;12.24;69.44;101577.38;5013945;28;20073;-68
2021/03/08 00:22:44;;;;;;;15.30;7.93;;;;;;;12.07;69.52;101577.00;5013047;28;20045;-67
2021/03/08 00:25:14;;;;;;;13.82;6.13;;;;;;;11.98;69.86;101582.06;5013340;28;20144;-68
2021/03/08 00:27:41;;;;;;;11.43;4.97;;;;;;;12.00;69.88;101577.72;5012424;28;20521;-67
2021/03/08 00:30:13;;;;;;;13.13;5.30;;;;;;;12.07;69.73;101579.66;5013386;28;20050;-67
2021/03/08 00:32:40;;;;;;;11.23;5.97;;;;;;;12.01;69.77;101582.16;5011892;28;20048;-67
2021/03/08 00:35:09;;;;;;;14.50;5.38;;;;;;;12.05;69.89;101580.47;5013576;28;20038;-68
2021/03/08 00:37:36;;;;;;;13.38;5.93;;;;;;;11.92;70.14;101574.91;5012828;28;20050;-67
2021/03/08 00:40:06;;;;;;;10.18;5.63;;;;;;;11.85;70.52;101580.00;5012797;28;20092;-67
2021/03/08 00:42:34;;;;;;;9.93;5.68;;;;;;;11.80;70.63;101585.19;5012018;28;20030;-68
2021/03/08 00:45:01;;;;;;;14.95;5.53;;;;;;;11.75;70.81;101583.31;5013355;28;20038;-68
2021/03/08 00:47:30;;;;;;;13.13;5.55;;;;;;;11.67;71.17;101587.47;5012060;28;20715;-68
2021/03/08 00:49:57;;;;;;;13.18;4.75;;;;;;;11.69;71.20;101584.00;4993691;28;20039;-67
2021/03/08 00:52:24;;;;;;;11.38;4.68;;;;;;;11.78;70.80;101581.63;4999102;28;20066;-67
2021/03/08 00:54:51;;;;;;;11.00;5.45;;;;;;;11.79;70.60;101586.06;5012814;28;20088;-68
2021/03/08 00:57:19;;;;;;;12.48;6.13;;;;;;;11.67;70.86;101574.25;5012155;28;20034;-68
2021/03/08 00:59:46;;;;;;;16.25;6.65;;;;;;;11.68;70.77;101574.28;5012831;28;20046;-67
2021/03/08 01:02:14;;;;;;;15.23;5.63;;;;;;;11.64;70.94;101569.78;5012228;28;20131;-67
2021/03/08 01:04:42;;;;;;;13.68;6.10;;;;;;;11.61;71.08;101566.16;5011781;28;20038;-67
2021/03/08 01:07:09;;;;;;;15.63;6.05;;;;;;;11.66;70.95;101568.06;5012706;28;20072;-67
2021/03/08 01:09:36;;;;;;;12.88;5.50;;;;;;;11.62;70.83;101558.25;5011444;28;20065;-67
2021/03/08 01:12:05;;;;;;;14.70;5.85;;;;;;;11.65;70.68;101563.63;5012265;28;20038;-68
2021/03/08 01:14:32;;;;;;;10.25;5.43;;;;;;;11.66;70.65;101556.59;5011578;28;20046;-67
2021/03/08 01:17:00;;;;;;;13.88;5.43;;;;;;;11.64;70.58;101558.28;5012469;28;20073;-67
2021/03/08 01:19:27;;;;;;;11.27;6.07;;;;;;;11.71;70.80;101560.22;5011780;28;20128;-67
2021/03/08 01:21:55;;;;;;;10.48;5.32;;;;;;;11.69;70.81;101552.25;5012403;28;20129;-67
2021/03/08 01:24:22;;;;;;;13.30;5.78;;;;;;;11.56;71.31;101552.81;5011393;28;20060;-67
2021/03/08 01:26:49;;;;;;;15.05;5.47;;;;;;;11.54;71.46;101549.25;4994979;28;20046;-67
2021/03/08 01:29:16;;;;;;;11.27;4.70;;;;;;;11.42;71.64;101549.84;5011181;28;20046;-67
2021/03/08 01:31:44;;;;;;;11.35;5.97;;;;;;;11.31;72.05;101542.50;5012224;28;20050;-67
2021/03/08 01:34:11;;;;;;;10.27;5.93;;;;;;;11.42;72.03;101538.41;5011761;28;20117;-67
2021/03/08 01:36:39;;;;;;;18.40;12.50;;;;;;;11.47;72.01;101542.03;5011513;28;20546;-67
2021/03/08 01:39:07;;;;;;;24.73;17.60;;;;;;;11.52;71.98;101540.38;5012228;28;20038;-67
2021/03/08 01:41:35;;;;;;;27.38;21.25;;;;;;;11.58;71.72;101533.50;5011858;28;20060;-67
2021/03/08 01:44:02;;;;;;;29.40;24.25;;;;;;;11.57;71.52;101533.44;5011352;28;20060;-67
2021/03/08 01:46:29;;;;;;;15.77;9.65;;;;;;;11.52;71.56;101536.00;5011743;28;20042;-67
2021/03/08 01:48:56;;;;;;;20.00;9.98;;;;;;;11.57;71.64;101541.38;5011884;28;20117;-69
2021/03/08 01:51:23;;;;;;;13.05;7.78;;;;;;;11.53;71.64;101531.59;5011558;28;20046;-67
2021/03/08 01:53:53;;;;;;;15.57;8.77;;;;;;;11.57;71.78;101528.16;5011936;28;20042;-68
2021/03/08 01:56:22;;;;;;;14.27;8.23;;;;;;;11.71;71.63;101525.84;5006937;28;20498;-67
2021/03/08 01:58:49;;;;;;;14.77;7.35;;;;;;;11.69;71.48;101532.84;5011587;28;20438;-67
2021/03/08 02:01:16;;;;;;;18.50;9.07;;;;;;;11.71;71.68;101531.13;5011988;28;20129;-67
2021/03/08 02:03:43;;;;;;;12.35;6.45;;;;;;;11.61;71.73;101529.16;4993852;28;20129;-68
2021/03/08 02:06:11;;;;;;;15.52;11.32;;;;;;;11.58;72.05;101520.28;5011223;28;20438;-67
2021/03/08 02:08:38;;;;;;;12.95;7.63;;;;;;;11.61;71.89;101519.47;5011216;28;20116;-67
2021/03/08 02:11:06;;;;;;;11.57;5.45;;;;;;;11.64;71.81;101524.81;5010603;28;20038;-66
2021/03/08 02:14:07;;;;;;;13.52;5.97;;;;;;;11.61;71.86;101527.41;5010614;28;20100;-67
2021/03/08 02:16:42;;;;;;;13.13;6.32;;;;;;;11.52;72.14;101524.53;5010495;28;20038;-67
2021/03/08 02:19:29;;;;;;;12.80;5.22;;;;;;;11.63;71.86;101528.31;4992039;28;20121;-67
2021/03/08 02:22:17;;;;;;;13.95;6.18;;;;;;;11.58;71.81;101515.00;4991721;28;20038;-67
2021/03/08 02:25:08;;;;;;;11.13;5.20;;;;;;;11.68;71.77;101523.16;5003806;28;20132;-67
2021/03/08 02:28:03;;;;;;;12.43;5.32;;;;;;;11.72;71.70;101522.34;5010488;28;20048;-67
2021/03/08 02:30:36;;;;;;;;;;;;;;;11.79;71.66;101509.34;5010884;28;20099;-67
2021/03/08 02:33:07;;;;;;;13.85;6.20;;;;;;;11.80;71.56;101515.53;5010906;28;20005;-67
2021/03/08 02:35:36;;;;;;;15.27;6.07;;;;;;;11.85;71.54;101516.50;5010750;28;20044;-67
2021/03/08 02:38:08;;;;;;;30.77;20.50;;;;;;;11.77;71.52;101510.16;5010655;28;20038;-68
2021/03/08 02:40:37;;;;;;;30.23;22.25;;;;;;;11.70;71.94;101508.19;5009176;28;20060;-67
2021/03/08 02:43:10;;;;;;;26.45;21.08;;;;;;;11.72;71.96;101501.19;5011023;28;20092;-67
2021/03/08 02:45:38;;;;;;;19.35;10.93;;;;;;;11.79;72.12;101509.34;5010274;28;20073;-67
2021/03/08 02:48:07;;;;;;;16.27;13.20;;;;;;;11.76;72.07;101513.66;5010626;28;20376;-67
2021/03/08 02:50:36;;;;;;;9.70;5.88;;;;;;;11.80;72.28;101521.72;5009150;28;20474;-68
2021/03/08 02:53:08;;;;;;;11.07;4.85;;;;;;;11.92;72.08;101532.56;5009928;28;20714;-67
2021/03/08 02:55:41;;;;;;;14.20;5.78;;;;;;;12.03;71.89;101531.91;4992644;28;20518;-67
2021/03/08 02:58:11;;;;;;;10.57;6.63;;;;;;;12.10;71.83;101539.09;5010670;28;20048;-67
2021/03/08 03:00:39;;;;;;;13.13;6.25;;;;;;;12.17;71.72;101543.69;5010209;28;20379;-67
2021/03/08 03:03:08;;;;;;;11.93;7.75;;;;;;;12.16;71.78;101552.47;5010276;28;20061;-67
2021/03/08 03:05:39;;;;;;;15.43;8.50;;;;;;;12.11;71.84;101552.38;5009644;28;20739;-67
2021/03/08 03:08:10;;;;;;;9.93;6.57;;;;;;;12.17;71.95;101548.97;5010752;28;20045;-67
2021/03/08 03:10:39;;;;;;;11.10;6.45;;;;;;;12.22;71.82;101558.78;5010118;28;20072;-67
2021/03/08 03:13:08;;;;;;;10.55;5.43;;;;;;;12.28;71.74;101552.72;5010213;28;20030;-67
2021/03/08 03:15:40;;;;;;;12.95;6.10;;;;;;;12.30;71.71;101548.38;5009373;28;20076;-67
2021/03/08 03:18:10;;;;;;;10.38;4.90;;;;;;;12.25;71.88;101543.00;5009026;28;20498;-67
2021/03/08 03:20:39;;;;;;;12.45;5.80;;;;;;;12.24;71.77;101541.19;5009511;28;20620;-67
2021/03/08 03:23:10;;;;;;;9.07;5.10;;;;;;;12.20;71.77;101546.41;5010039;28;20034;-67
2021/03/08 03:25:38;;;;;;;9.90;5.18;;;;;;;12.11;71.95;101554.13;5010142;28;20080;-67
2021/03/08 03:28:06;;;;;;;10.00;5.45;;;;;;;11.97;72.07;101554.72;5009781;28;20037;-67
2021/03/08 03:30:34;;;;;;;12.57;6.15;;;;;;;11.93;72.02;101550.22;5009604;28;20077;-67
2021/03/08 03:33:04;;;;;;;9.23;4.85;;;;;;;12.03;71.89;101539.84;5009812;28;20415;-67
2021/03/08 03:35:32;;;;;;;10.60;5.88;;;;;;;12.02;71.71;101540.69;5008811;28;20049;-67
2021/03/08 03:38:00;;;;;;;12.25;6.63;;;;;;;11.93;71.72;101541.41;5010047;28;20076;-67
2021/03/08 03:40:27;;;;;;;12.13;5.15;;;;;;;11.81;71.99;101543.78;5009594;28;20419;-67
2021/03/08 03:42:55;;;;;;;9.85;5.30;;;;;;;11.74;72.07;101548.03;5010263;28;20073;-67
2021/03/08 03:45:23;;;;;;;11.45;5.45;;;;;;;11.68;72.04;101546.94;4991762;28;20127;-67
2021/03/08 03:47:51;;;;;;;10.05;5.47;;;;;;;11.55;71.91;101557.22;5002719;28;20034;-67
2021/03/08 03:50:24;;;;;;;11.80;4.80;;;;;;;11.46;72.19;101559.66;5009182;28;20042;-67
2021/03/08 03:52:51;;;;;;;13.63;4.82;;;;;;;11.35;72.21;101555.84;5015374;28;20626;-67
2021/03/08 03:55:20;;;;;;;10.38;4.97;;;;;;;11.35;71.94;101555.84;5016207;28;20046;-67
2021/03/08 03:57:54;;;;;;;11.80;5.65;;;;;;;11.32;71.88;101562.78;5016381;28;20069;-67
2021/03/08 04:00:24;;;;;;;;;;;;;;;11.34;71.64;101567.28;5016826;28;20559;-67
2021/03/08 04:02:57;;;;;;;10.98;5.22;;;;;;;11.31;71.49;101558.34;5015689;28;20305;-67
2021/03/08 04:05:26;;;;;;;11.45;5.75;;;;;;;11.32;71.32;101561.03;5015348;28;20115;-67
2021/03/08 04:07:54;;;;;;;12.15;5.30;;;;;;;11.19;71.35;101566.88;5016254;28;20188;-67
2021/03/08 04:10:23;;;;;;;11.65;5.00;;;;;;;11.07;71.52;101558.63;5015670;28;20046;-67
2021/03/08 04:12:54;;;;;;;12.77;5.57;;;;;;;10.88;71.61;101559.91;5016311;28;20045;-67
2021/03/08 04:15:26;;;;;;;16.05;6.93;;;;;;;10.87;71.73;101555.47;5015848;28;20120;-67
2021/03/08 04:17:54;;;;;;;17.60;8.40;;;;;;;10.80;71.65;101553.50;5016031;28;20045;-67
2021/03/08 04:20:22;;;;;;;17.67;8.48;;;;;;;10.78;71.39;101553.44;5016126;28;20045;-67
2021/03/08 04:22:52;;;;;;;11.63;5.10;;;;;;;10.77;71.46;101551.66;5016205;28;20042;-67
2021/03/08 04:25:21;;;;;;;11.27;5.30;;;;;;;10.75;71.23;101540.19;5015770;28;20045;-67
2021/03/08 04:27:49;;;;;;;11.95;6.00;;;;;;;10.65;71.18;101543.41;5015263;28;20038;-67
2021/03/08 04:30:17;;;;;;;11.40;5.43;;;;;;;10.60;71.32;101541.50;5015753;28;20070;-67
2021/03/08 04:32:48;;;;;;;10.30;5.20;;;;;;;10.59;71.26;101542.34;5015608;28;20034;-67
2021/03/08 04:35:16;;;;;;;9.95;5.60;;;;;;;10.53;71.38;101550.09;5016058;28;20424;-67
2021/03/08 04:37:44;;;;;;;11.38;6.53;;;;;;;10.49;71.38;101546.47;5015691;28;20038;-67
2021/03/08 04:40:15;;;;;;;11.70;5.32;;;;;;;10.56;71.45;101563.38;5016370;28;20526;-67
2021/03/08 04:42:43;;;;;;;12.52;7.40;;;;;;;10.51;71.47;101554.41;5014649;28;20045;-67
2021/03/08 04:45:12;;;;;;;12.27;6.75;;;;;;;10.49;71.40;101562.31;5015947;28;20117;-67
2021/03/08 04:47:42;;;;;;;13.77;6.55;;;;;;;10.42;71.61;101565.63;5015363;28;20588;-67
2021/03/08 04:50:10;;;;;;;19.77;11.18;;;;;;;10.49;71.66;101564.97;5016052;28;20165;-67
2021/03/08 04:52:39;;;;;;;28.55;18.38;;;;;;;10.59;71.51;101566.09;5015271;28;20176;-67
2021/03/08 04:55:08;;;;;;;26.48;17.63;;;;;;;10.63;71.31;101560.94;5015862;28;20068;-67
2021/03/08 04:57:40;;;;;;;26.40;16.55;;;;;;;10.65;71.48;101548.69;5015321;28;20038;-66
2021/03/08 05:00:09;;;;;;;33.88;19.90;;;;;;;10.67;71.63;101549.63;5014840;28;20042;-67
2021/03/08 05:02:38;;;;;;;19.35;12.60;;;;;;;10.75;71.57;101545.47;5013189;28;20121;-67
2021/03/08 05:05:08;;;;;;;19.75;9.90;;;;;;;10.84;71.36;101538.63;5012392;28;20120;-67
2021/03/08 05:07:39;;;;;;;17.90;10.25;;;;;;;10.91;71.32;101552.03;5011717;28;20095;-67
2021/03/08 05:10:09;;;;;;;21.85;11.40;;;;;;;10.96;71.47;101553.03;5012435;28;20034;-67
2021/03/08 05:12:40;;;;;;;22.55;12.27;;;;;;;11.06;71.61;101549.81;4995029;28;20045;-66
2021/03/08 05:15:10;;;;;;;18.63;7.97;;;;;;;11.15;72.14;101544.78;5012345;28;20037;-67
2021/03/08 05:17:38;;;;;;;16.95;6.78;;;;;;;11.31;72.43;101534.56;5000524;28;22672;-67
2021/03/08 05:20:07;;;;;;;14.18;5.97;;;;;;;11.46;72.46;101541.13;5012423;28;20062;-67
2021/03/08 05:22:37;;;;;;;13.20;5.57;;;;;;;11.61;72.62;101532.69;5012263;28;20045;-67
2021/03/08 05:25:06;;;;;;;17.30;7.43;;;;;;;11.78;72.71;101541.03;5003143;28;20584;-67
2021/03/08 05:27:35;;;;;;;17.27;9.43;;;;;;;11.85;73.11;101543.88;5011725;28;20052;-67
2021/03/08 05:30:06;;;;;;;16.20;7.38;;;;;;;12.09;73.64;101553.19;5011696;28;20034;-67
2021/03/08 05:32:37;;;;;;;15.00;9.43;;;;;;;12.26;73.61;101558.03;5011731;28;20053;-68
2021/03/08 05:35:04;;;;;;;15.07;8.25;;;;;;;12.35;73.66;101562.59;4994630;28;20202;-67
2021/03/08 05:37:34;;;;;;;13.05;7.65;;;;;;;12.34;73.72;101564.34;5011329;28;20099;-67
2021/03/08 05:40:05;;;;;;;13.63;4.78;;;;;;;12.42;73.54;101553.03;5011945;28;20041;-68
2021/03/08 05:42:37;;;;;;;10.23;4.93;;;;;;;12.54;73.57;101559.47;5011442;28;20040;-67
2021/03/08 05:45:09;;;;;;;7.75;4.38;;;;;;;12.65;73.43;101565.91;5011900;28;20133;-67
2021/03/08 05:47:59;;;;;;;14.38;8.38;;;;;;;12.76;73.16;101574.03;5011358;28;20038;-67
2021/03/08 05:50:48;;;;;;;8.88;4.90;;;;;;;12.99;73.05;101578.03;5008119;28;20046;-67
2021/03/08 05:53:36;;;;;;;10.63;4.65;;;;;;;13.18;72.97;101573.09;5011899;28;20141;-67
2021/03/08 05:56:20;;;;;;;11.57;5.10;;;;;;;13.33;72.14;101573.34;5011416;28;20038;-68
2021/03/08 05:59:06;;;;;;;11.52;5.97;;;;;;;13.49;71.77;101572.75;5010921;28;20042;-68
2021/03/08 06:02:05;;;;;;;9.93;6.03;;;;;;;13.77;71.29;101568.81;5011360;28;20121;-68
2021/03/08 06:05:13;;;;;;;14.25;7.03;;;;;;;13.87;70.42;101570.72;5010195;28;20071;-68
2021/03/08 06:08:12;;;;;;;14.80;6.60;;;;;;;13.91;69.66;101568.13;4927375;28;20034;-67
2021/03/08 06:10:47;;;;;;;16.38;7.65;;;;;;;13.85;69.37;101565.38;5010076;28;20124;-67
2021/03/08 06:13:20;;;;;;;18.83;7.90;;;;;;;13.74;69.41;101558.13;5011510;28;20050;-68
2021/03/08 06:15:57;;;;;;;18.67;8.15;;;;;;;13.64;69.52;101558.88;5011171;28;20038;-67
2021/03/08 06:18:32;;;;;;;21.77;11.20;;;;;;;13.61;69.31;101564.09;5010858;28;20133;-68
2021/03/08 06:21:01;;;;;;;26.98;11.98;;;;;;;13.73;69.30;101566.94;4992079;28;20038;-68
2021/03/08 06:23:29;;;;;;;22.48;11.63;;;;;;;13.94;69.49;101557.56;5006173;28;20133;-68
2021/03/08 06:25:57;;;;;;;23.00;11.70;;;;;;;13.99;69.38;101554.97;5010040;28;20450;-67
2021/03/08 06:28:25;;;;;;;24.25;13.32;;;;;;;14.05;69.24;101562.13;5006998;28;20034;-67
2021/03/08 06:30:55;;;;;;;45.20;24.55;;;;;;;14.04;69.07;101568.31;5014320;28;20065;-67
2021/03/08 06:33:23;;;;;;;47.05;24.38;;;;;;;14.07;69.59;101565.69;5013875;28;20537;-68
2021/03/08 06:35:53;;;;;;;38.70;21.20;;;;;;;14.09;69.84;101580.78;5010646;28;20046;-69
2021/03/08 06:38:22;;;;;;;30.52;17.20;;;;;;;14.18;69.87;101580.00;5009463;28;20632;-69
2021/03/08 06:40:49;;;;;;;28.23;17.55;;;;;;;14.33;69.45;101578.47;5020987;28;20058;-68
2021/03/08 06:43:16;;;;;;;21.95;13.40;;;;;;;14.85;69.00;101570.25;5012015;28;20395;-68
2021/03/08 06:45:43;;;;;;;18.50;10.45;;;;;;;15.61;68.66;101568.38;5010711;28;20096;-68
2021/03/08 06:48:11;;;;;;;12.07;5.30;;;;;;;16.30;67.23;101550.19;5010492;28;20030;-67
2021/03/08 06:50:39;;;;;;;11.60;5.47;;;;;;;16.79;64.84;101552.19;5008450;28;20062;-68
2021/03/08 06:53:07;;;;;;;12.18;6.05;;;;;;;16.96;63.51;101559.34;5009026;28;20644;-68
2021/03/08 06:55:35;;;;;;;11.80;5.25;;;;;;;17.04;63.12;101576.25;5009912;28;20430;-68
2021/03/08 06:58:19;;;;;;;10.07;5.25;;;;;;;17.18;61.76;101570.06;5010448;28;20048;-68
2021/03/08 07:00:46;;;;;;;;;;;;;;;17.08;61.14;101561.13;5010769;28;20376;-69
2021/03/08 07:03:33;;;;;;;8.82;4.47;;;;;;;17.18;61.78;101570.94;5010350;28;19921;-69
2021/03/08 07:06:17;;;;;;;9.07;5.15;;;;;;;17.01;61.56;101572.66;4999486;28;20095;-69
2021/03/08 07:08:46;;;;;;;7.82;5.43;;;;;;;16.92;61.36;101562.91;5010283;28;20572;-69
2021/03/08 07:11:17;;;;;;;11.18;4.80;;;;;;;16.86;59.98;101568.22;5010474;28;20038;-69
2021/03/08 07:13:45;;;;;;;10.13;5.88;;;;;;;16.69;59.79;101576.16;5010160;28;20452;-69
2021/03/08 07:16:12;;;;;;;9.38;4.18;;;;;;;16.64;59.81;101579.69;5010637;28;20163;-68
2021/03/08 07:18:41;;;;;;;8.35;5.07;;;;;;;16.72;59.05;101592.16;5010144;28;20627;-69
2021/03/08 07:21:16;;;;;;;9.70;4.93;;;;;;;16.86;58.28;101594.88;5011206;28;20668;-69
2021/03/08 07:23:44;;;;;;;6.15;3.88;;;;;;;16.96;58.60;101590.44;5010089;28;20064;-69
2021/03/08 07:26:14;;;;;;;11.23;5.78;;;;;;;16.87;58.34;101588.63;5017257;28;20062;-69
2021/03/08 07:28:44;;;;;;;13.23;7.38;;;;;;;16.70;58.47;101583.25;5009660;28;20038;-68
2021/03/08 07:31:34;;;;;;;17.08;8.95;;;;;;;16.66;58.57;101585.91;4994415;28;20557;-70
2021/03/08 07:34:02;;;;;;;12.50;6.88;;;;;;;16.95;58.19;101583.34;5007650;28;20048;-69
2021/03/08 07:36:29;;;;;;;8.93;4.75;;;;;;;17.37;57.54;101580.75;4987880;28;20045;-69
2021/03/08 07:38:56;;;;;;;28.85;16.20;;;;;;;17.55;57.27;101585.22;5008162;28;20050;-69
2021/03/08 07:41:25;;;;;;;15.10;5.68;;;;;;;17.47;56.79;101582.53;5027606;28;20506;-69
2021/03/08 07:44:06;;;;;;;12.02;4.63;;;;;;;17.33;57.03;101591.41;5009251;28;20039;-68
2021/03/08 07:46:34;;;;;;;9.10;5.25;;;;;;;17.20;56.16;101592.31;5007450;28;20038;-68
2021/03/08 07:49:04;;;;;;;7.85;5.35;;;;;;;17.31;56.17;101588.75;5007360;28;20038;-67
2021/03/08 07:51:31;;;;;;;19.17;8.55;;;;;;;17.55;55.78;101609.25;5005339;28;20048;-68
2021/03/08 07:54:00;;;;;;;11.75;5.85;;;;;;;17.49;55.28;101609.22;5006854;28;20564;-68
2021/03/08 07:56:29;;;;;;;12.73;6.90;;;;;;;17.38;55.51;101614.56;5003142;28;20041;-68
2021/03/08 07:58:56;;;;;;;12.77;6.28;;;;;;;17.29;55.41;101617.22;5007475;28;20133;-68
2021/03/08 08:01:24;;;;;;;10.18;4.72;;;;;;;17.28;55.99;101618.09;5007446;28;20088;-68
2021/03/08 08:03:52;;;;;;;10.02;5.22;;;;;;;17.35;55.65;101611.88;5009136;28;20129;-68
2021/03/08 08:06:21;;;;;;;8.25;4.78;;;;;;;17.46;55.23;101612.78;5006282;28;20112;-66
2021/03/08 08:08:50;;;;;;;11.75;5.10;;;;;;;17.52;55.09;101615.44;5008571;28;20041;-68
2021/03/08 08:11:19;;;;;;;18.92;10.35;;;;;;;17.55;54.79;101614.56;5003835;28;20054;-67
2021/03/08 08:13:49;;;;;;;16.08;7.00;;;;;;;17.57;54.50;101607.47;5004965;28;20056;-67
2021/03/08 08:16:19;;;;;;;14.80;7.32;;;;;;;17.30;54.66;101608.31;5008909;28;20064;-67
2021/03/08 08:18:48;;;;;;;9.98;5.03;;;;;;;17.19;54.32;101603.88;5008104;28;20141;-67
2021/03/08 08:21:17;;;;;;;11.95;6.43;;;;;;;17.27;54.32;101607.41;5009794;28;20065;-67
2021/03/08 08:23:45;;;;;;;9.77;4.30;;;;;;;17.23;53.87;101617.22;5007166;28;20394;-67
2021/03/08 08:26:16;;;;;;;13.48;6.15;;;;;;;17.10;54.62;101613.63;5007578;28;20026;-67
2021/03/08 08:28:46;;;;;;;16.65;6.93;;;;;;;17.09;54.19;101613.59;5005246;28;20053;-67
2021/03/08 08:31:15;;;;;;;13.40;6.40;;;;;;;17.17;54.16;101611.84;5007869;28;20038;-67
2021/03/08 08:33:43;;;;;;;12.90;5.03;;;;;;;17.25;54.03;101610.09;5007909;28;20164;-67
2021/03/08 08:36:12;;;;;;;11.05;5.85;;;;;;;17.51;53.65;101621.72;5005797;28;20049;-67
2021/03/08 08:38:41;;;;;;;11.32;6.75;;;;;;;17.84;53.43;101609.28;5007514;28;20125;-67
2021/03/08 08:41:20;;;;;;;11.13;5.68;;;;;;;18.08;52.84;101621.72;4995433;28;20034;-67
2021/03/08 08:43:48;;;;;;;12.80;6.78;;;;;;;18.17;52.72;101619.94;5005951;28;20062;-67
2021/03/08 08:46:28;;;;;;;9.82;4.40;;;;;;;18.28;52.08;101606.53;5006345;28;20069;-67
2021/03/08 08:49:19;;;;;;;27.52;17.50;;;;;;;18.68;51.53;101602.88;5007695;28;20046;-67
2021/03/08 08:51:50;;;;;;;7.85;3.35;;;;;;;18.60;51.42;101595.75;5009249;28;20038;-67
2021/03/08 08:54:51;;;;;;;7.45;3.90;;;;;;;18.43;51.94;101589.56;5007853;28;20041;-67
2021/03/08 08:57:19;;;;;;;7.53;4.90;;;;;;;18.38;52.40;101586.03;5006807;28;20046;-68
2021/03/08 08:59:49;;;;;;;8.38;3.90;;;;;;;18.24;51.87;101589.63;5011874;28;20491;-67
2021/03/08 09:02:33;;;;;;;9.48;3.60;;;;;;;18.16;51.43;101593.19;5019476;28;20066;-68
2021/03/08 09:05:01;;;;;;;6.88;3.72;;;;;;;18.17;51.97;101585.19;5023789;28;20494;-67
2021/03/08 09:07:29;;;;;;;7.93;3.75;;;;;;;18.37;51.42;101576.22;5019980;28;20045;-68
2021/03/08 09:09:57;;;;;;;6.93;3.72;;;;;;;18.44;51.05;101568.19;5010763;28;20041;-68
2021/03/08 09:12:30;;;;;;;7.97;3.55;;;;;;;18.28;51.18;101575.34;5005664;28;20041;-68
2021/03/08 09:14:58;;;;;;;13.88;8.13;;;;;;;18.27;51.33;101586.94;5010544;28;20034;-68
2021/03/08 09:17:28;;;;;;;11.52;5.75;;;;;;;18.48;51.16;101591.31;5007548;28;20062;-68
2021/03/08 09:20:28;;;;;;;10.88;4.15;;;;;;;18.78;50.89;101576.94;5017732;28;20033;-67
2021/03/08 09:22:58;;;;;;;9.15;3.42;;;;;;;18.89;50.21;101560.84;4985805;28;20056;-68
2021/03/08 09:25:27;;;;;;;10.45;3.85;;;;;;;18.89;50.22;101560.84;5010010;28;20038;-68
2021/03/08 09:28:10;;;;;;;9.82;4.72;;;;;;;18.95;49.71;101542.09;5005879;28;20380;-68
2021/03/08 09:30:40;;;;;;;7.60;2.70;;;;;;;19.05;49.49;101536.66;4986855;28;20034;-68
2021/03/08 09:33:11;;;;;;;7.03;3.50;;;;;;;19.00;49.31;101537.59;5003745;28;20065;-68
2021/03/08 09:35:41;;;;;;;9.38;5.07;;;;;;;19.03;49.42;101535.75;5006060;28;20046;-68
2021/03/08 09:38:11;;;;;;;18.38;10.07;;;;;;;19.17;49.21;101550.84;5004608;28;20179;-68
2021/03/08 09:40:40;;;;;;;7.65;4.30;;;;;;;19.36;49.08;101553.38;5002888;28;20173;-68
2021/03/08 09:43:25;;;;;;;13.43;7.90;;;;;;;19.71;49.09;101554.91;5004447;28;20467;-68
2021/03/08 09:45:57;;;;;;;11.40;5.82;;;;;;;19.76;49.26;101566.47;5001131;28;20050;-68
2021/03/08 09:48:24;;;;;;;10.15;4.65;;;;;;;19.80;49.22;101568.22;4999480;28;20617;-68
2021/03/08 09:50:52;;;;;;;7.22;3.45;;;;;;;19.85;49.01;101556.56;5013737;28;20045;-68
2021/03/08 09:53:20;;;;;;;7.43;3.40;;;;;;;19.94;48.48;101543.97;5005154;28;20045;-67
2021/03/08 09:55:47;;;;;;;7.18;3.33;;;;;;;19.95;48.10;101533.25;5002822;28;20042;-68
2021/03/08 09:58:16;;;;;;;6.70;3.58;;;;;;;19.95;47.69;101525.22;5007175;28;20058;-68
2021/03/08 10:00:43;;;;;;;7.85;3.10;;;;;;;19.72;47.81;101536.16;5007438;28;20046;-68
2021/03/08 10:03:12;;;;;;;7.57;3.58;;;;;;;19.63;48.13;101536.22;5011828;28;20050;-68
2021/03/08 10:05:42;;;;;;;12.43;3.70;;;;;;;19.72;47.77;101532.56;5002096;28;20148;-68
2021/03/08 10:08:11;;;;;;;8.27;3.70;;;;;;;19.65;48.20;101525.50;4990220;28;20554;-68
2021/03/08 10:10:41;;;;;;;18.95;7.68;;;;;;;19.87;47.96;101519.03;5007602;28;20503;-68
2021/03/08 10:13:08;;;;;;;6.82;3.65;;;;;;;19.81;48.22;101529.81;5005494;28;20045;-68
2021/03/08 10:15:41;;;;;;;10.05;4.65;;;;;;;19.72;47.79;101540.59;5004088;28;20076;-68
2021/03/08 10:18:09;;;;;;;22.05;8.57;;;;;;;19.69;48.00;101527.25;5009260;28;20577;-68
2021/03/08 10:20:47;;;;;;;9.30;4.25;;;;;;;20.00;47.70;101519.78;5006498;28;20499;-69
2021/03/08 10:23:24;;;;;;;12.30;5.95;;;;;;;19.93;47.23;101502.88;5005619;28;20562;-69
2021/03/08 10:25:52;;;;;;;11.95;5.05;;;;;;;19.62;47.17;101501.44;5000029;28;20046;-69
2021/03/08 10:28:20;;;;;;;8.05;3.72;;;;;;;19.36;47.74;101501.63;5009375;28;20041;-69
2021/03/08 10:30:48;;;;;;;8.23;4.10;;;;;;;19.34;47.85;101501.66;5008897;28;20061;-70
2021/03/08 10:33:19;;;;;;;6.13;3.50;;;;;;;19.26;47.77;101497.25;5005436;28;20446;-69
2021/03/08 10:35:47;;;;;;;8.93;4.20;;;;;;;19.21;47.96;101494.63;4987663;28;20037;-69
2021/03/08 10:38:20;;;;;;;6.95;3.60;;;;;;;19.29;47.83;101490.09;5000395;28;20064;-69
2021/03/08 10:40:47;;;;;;;7.78;3.53;;;;;;;19.59;47.92;101491.63;5007065;28;20045;-70
2021/03/08 10:43:15;;;;;;;6.95;3.55;;;;;;;19.88;47.55;101486.88;5004092;28;20042;-71
2021/03/08 10:46:03;;;;;;;10.70;3.53;;;;;;;19.95;47.26;101478.75;5007362;28;20046;-70
2021/03/08 10:48:30;;;;;;;8.43;3.25;;;;;;;19.90;47.12;101463.59;5007806;28;20358;-70
2021/03/08 10:51:00;;;;;;;8.85;3.42;;;;;;;19.69;47.31;101444.22;5010159;28;20034;-70
2021/03/08 10:53:28;;;;;;;7.95;3.53;;;;;;;19.66;47.45;101444.22;5008060;28;20129;-71
2021/03/08 10:55:55;;;;;;;7.55;3.95;;;;;;;19.75;47.53;101437.00;5010841;28;20485;-68
2021/03/08 10:58:35;;;;;;;8.65;4.47;;;;;;;19.99;47.32;101443.84;5008704;28;20604;-69
2021/03/08 11:01:09;;;;;;;5.85;3.50;;;;;;;20.17;46.50;101438.25;5004896;28;20046;-69
2021/03/08 11:03:38;;;;;;;8.35;4.50;;;;;;;20.12;46.26;101429.38;5001523;28;20125;-67
2021/03/08 11:06:07;;;;;;;7.57;3.85;;;;;;;19.89;46.85;101415.34;5007743;28;20049;-69
2021/03/08 11:08:38;;;;;;;11.10;3.63;;;;;;;19.68;46.96;101410.28;5002721;28;20072;-68
2021/03/08 11:11:15;;;;;;;6.93;3.38;;;;;;;19.55;47.05;101398.81;5006005;28;20042;-69
2021/03/08 11:13:42;;;;;;;6.53;3.78;;;;;;;19.75;46.75;101396.78;5009781;28;20049;-68
2021/03/08 11:16:11;;;;;;;8.30;3.80;;;;;;;19.82;46.39;101393.09;5009509;28;20047;-68
2021/03/08 11:18:38;;;;;;;8.70;4.38;;;;;;;19.78;46.33;101386.03;5008383;28;20246;-68
2021/03/08 11:21:23;;;;;;;6.82;4.45;;;;;;;20.13;45.99;101382.00;5002590;28;20061;-68
2021/03/08 11:23:53;;;;;;;5.25;3.15;;;;;;;19.86;45.98;101384.16;5006565;28;20038;-68
2021/03/08 11:26:21;;;;;;;7.72;3.53;;;;;;;19.77;46.07;101373.53;5001004;28;20112;-68
2021/03/08 11:28:48;;;;;;;8.70;4.25;;;;;;;19.95;46.00;101377.78;5009874;28;20416;-68
2021/03/08 11:31:26;;;;;;;6.05;3.63;;;;;;;20.08;45.39;101376.72;5005683;28;20040;-67
2021/03/08 11:33:56;;;;;;;6.82;3.78;;;;;;;20.15;45.50;101377.53;5009147;28;20096;-68
2021/03/08 11:36:33;;;;;;;6.90;3.58;;;;;;;20.34;45.43;101375.50;5009068;28;20176;-68